createdAt,value
2023-02-19T00:01:42.808Z,96032.44
2023-02-19T00:04:12.580Z,96022.13
2023-02-19T00:06:39.405Z,96024.19
2023-02-19T00:09:06.327Z,96026.69
2023-02-19T00:11:34.668Z,96019.38
2023-02-19T00:14:02.500Z,96017.06
2023-02-19T00:16:31.126Z,96020.88
2023-02-19T00:18:59.012Z,96023.44
2023-02-19T00:21:26.256Z,96023.25
2023-02-19T00:24:01.617Z,96018.44
2023-02-19T00:26:28.672Z,96023.44
2023-02-19T00:28:56.417Z,96024.84
2023-02-19T00:31:25.380Z,96021.19
2023-02-19T00:33:56.925Z,96030.22
2023-02-19T00:36:24.141Z,96022.81
2023-02-19T00:38:51.565Z,96017.97
2023-02-19T00:41:19.591Z,96022.69
2023-02-19T00:43:53.272Z,96018.44
2023-02-19T00:46:24.530Z,96017.84
2023-02-19T00:48:51.142Z,96015.00
2023-02-19T00:51:17.655Z,96014.00
2023-02-19T00:53:44.655Z,96017.78
2023-02-19T00:56:11.935Z,96030.97
2023-02-19T00:58:38.866Z,96027.47
2023-02-19T01:01:06.195Z,96027.72
2023-02-19T01:03:34.067Z,96029.34
2023-02-19T01:06:01.296Z,96022.44
2023-02-19T01:08:28.216Z,96027.28
2023-02-19T01:10:54.824Z,96015.56
2023-02-19T01:13:21.348Z,96017.78
2023-02-19T01:15:47.927Z,96016.31
2023-02-19T01:18:14.666Z,96015.81
2023-02-19T01:20:42.986Z,96014.22
2023-02-19T01:23:11.471Z,96011.28
2023-02-19T01:25:39.042Z,96016.88
2023-02-19T01:28:05.972Z,96019.97
2023-02-19T01:30:37.944Z,96011.50
2023-02-19T01:33:06.171Z,96020.09
2023-02-19T01:35:32.698Z,96013.56
2023-02-19T01:37:59.391Z,96007.28
2023-02-19T01:40:26.656Z,96019.94
2023-02-19T01:42:53.147Z,95998.75
2023-02-19T01:45:39.621Z,96001.94
2023-02-19T01:48:14.036Z,95997.16
2023-02-19T01:50:44.540Z,95996.47
2023-02-19T01:53:13.251Z,95999.16
2023-02-19T01:55:40.585Z,96005.09
2023-02-19T01:58:08.567Z,95999.69
2023-02-19T02:00:35.094Z,95986.34
2023-02-19T02:03:01.710Z,95977.88
2023-02-19T02:05:31.330Z,95978.31
2023-02-19T02:07:58.591Z,95980.81
2023-02-19T02:10:25.107Z,95979.38
2023-02-19T02:12:53.329Z,95975.19
2023-02-19T02:15:19.880Z,95968.97
2023-02-19T02:18:08.395Z,95962.31
2023-02-19T02:20:37.575Z,95968.28
2023-02-19T02:23:24.013Z,95972.03
2023-02-19T02:26:22.689Z,95970.41
2023-02-19T02:29:10.469Z,95970.06
2023-02-19T02:31:44.364Z,95968.59
2023-02-19T02:34:15.382Z,95967.28
2023-02-19T02:36:44.744Z,95964.22
2023-02-19T02:39:14.443Z,95957.78
2023-02-19T02:41:43.395Z,95950.84
2023-02-19T02:44:09.955Z,95951.34
2023-02-19T02:46:39.348Z,95955.72
2023-02-19T02:49:10.140Z,95956.03
2023-02-19T02:51:39.022Z,95952.09
2023-02-19T02:54:10.048Z,95946.56
2023-02-19T02:56:36.931Z,95949.97
2023-02-19T02:59:06.009Z,95952.47
2023-02-19T03:01:41.624Z,95956.34
2023-02-19T03:04:15.860Z,95944.75
2023-02-19T03:06:42.922Z,95949.47
2023-02-19T03:09:12.549Z,95955.59
2023-02-19T03:11:41.767Z,95945.81
2023-02-19T03:14:15.767Z,95941.72
2023-02-19T03:16:43.412Z,95936.88
2023-02-19T03:19:13.047Z,95944.97
2023-02-19T03:21:41.380Z,95942.81
2023-02-19T03:24:10.347Z,95951.03
2023-02-19T03:26:38.676Z,95946.63
2023-02-19T03:29:06.215Z,95952.13
2023-02-19T03:31:33.095Z,95937.50
2023-02-19T03:34:05.920Z,95930.00
2023-02-19T03:36:38.980Z,95926.38
2023-02-19T03:39:07.658Z,95918.06
2023-02-19T03:41:58.772Z,95924.22
2023-02-19T03:44:30.431Z,95924.22
2023-02-19T03:47:02.467Z,95926.50
2023-02-19T03:49:47.219Z,95936.03
2023-02-19T03:52:43.214Z,95927.72
2023-02-19T03:55:42.000Z,95930.22
2023-02-19T03:58:32.318Z,95937.59
2023-02-19T04:01:06.011Z,95929.44
2023-02-19T04:03:37.626Z,95932.97
2023-02-19T04:06:17.706Z,95936.41
2023-02-19T04:08:48.606Z,95942.78
2023-02-19T04:11:16.599Z,95948.34
2023-02-19T04:14:07.817Z,95953.22
2023-02-19T04:16:38.200Z,95947.50
2023-02-19T04:19:16.805Z,95956.50
2023-02-19T04:21:45.135Z,95965.28
2023-02-19T04:24:15.181Z,95962.50
2023-02-19T04:26:42.422Z,95967.28
2023-02-19T04:29:08.986Z,95971.03
2023-02-19T04:31:35.881Z,95969.09
2023-02-19T04:34:03.098Z,95976.13
2023-02-19T04:36:31.578Z,95984.28
2023-02-19T04:38:58.214Z,95986.19
2023-02-19T04:41:24.829Z,95987.53
2023-02-19T04:43:51.597Z,95995.53
2023-02-19T04:46:18.234Z,95998.72
2023-02-19T04:48:44.889Z,96001.88
2023-02-19T04:51:11.946Z,96002.53
2023-02-19T04:53:38.558Z,95994.88
2023-02-19T04:56:13.771Z,95999.88
2023-02-19T04:58:41.414Z,95999.94
2023-02-19T05:01:08.984Z,96012.50
2023-02-19T05:03:37.125Z,96014.75
2023-02-19T05:06:05.035Z,96015.22
2023-02-19T05:08:31.661Z,96004.00
2023-02-19T05:11:02.760Z,95980.94
2023-02-19T05:13:29.746Z,95976.81
2023-02-19T05:16:04.878Z,95986.47
2023-02-19T05:18:32.477Z,95979.63
2023-02-19T05:20:59.379Z,95972.84
2023-02-19T05:23:26.813Z,95977.19
2023-02-19T05:25:53.715Z,95975.19
2023-02-19T05:28:20.713Z,95958.88
2023-02-19T05:30:49.291Z,95948.66
2023-02-19T05:33:17.726Z,95946.22
2023-02-19T05:35:46.145Z,95941.66
2023-02-19T05:38:12.772Z,95940.00
2023-02-19T05:40:39.731Z,95948.63
2023-02-19T05:43:07.668Z,95937.06
2023-02-19T05:45:36.529Z,95933.63
2023-02-19T05:50:33.209Z,95929.72
2023-02-19T05:53:00.840Z,95940.94
2023-02-19T05:55:28.324Z,95952.13
2023-02-19T05:57:55.362Z,95951.56
2023-02-19T06:00:22.055Z,95946.19
2023-02-19T06:02:48.616Z,95945.59
2023-02-19T06:05:15.177Z,95938.97
2023-02-19T06:07:41.744Z,95938.16
2023-02-19T06:10:09.976Z,95945.31
2023-02-19T06:12:36.950Z,95943.13
2023-02-19T06:15:04.244Z,95946.69
2023-02-19T06:17:30.869Z,95960.38
2023-02-19T06:19:57.339Z,95970.06
2023-02-19T06:22:23.819Z,95968.09
2023-02-19T06:24:50.309Z,95971.81
2023-02-19T06:27:16.816Z,95967.69
2023-02-19T06:29:46.323Z,95973.50
2023-02-19T06:32:12.817Z,95977.06
2023-02-19T06:34:39.762Z,95991.16
2023-02-19T06:37:06.262Z,95997.97
2023-02-19T06:39:32.774Z,96009.00
2023-02-19T06:41:59.375Z,96008.84
2023-02-19T06:44:28.448Z,96014.06
2023-02-19T06:46:55.685Z,96006.81
2023-02-19T06:49:22.690Z,96014.44
2023-02-19T06:51:49.195Z,96010.44
2023-02-19T06:54:15.661Z,96001.94
2023-02-19T06:56:44.902Z,96012.53
2023-02-19T06:59:15.108Z,96010.19
2023-02-19T07:01:41.613Z,96012.75
2023-02-19T07:04:08.167Z,96014.22
2023-02-19T07:06:37.792Z,96004.94
2023-02-19T07:09:05.584Z,96008.84
2023-02-19T07:11:33.611Z,96013.13
2023-02-19T07:14:02.494Z,96026.78
2023-02-19T07:16:29.285Z,96030.47
2023-02-19T07:18:57.542Z,96033.72
2023-02-19T07:21:24.396Z,96042.63
2023-02-19T07:23:50.921Z,96050.16
2023-02-19T07:26:18.969Z,96042.44
2023-02-19T07:28:49.575Z,96037.81
2023-02-19T07:31:17.152Z,96047.19
2023-02-19T07:33:44.366Z,96049.31
2023-02-19T07:36:11.188Z,96052.34
2023-02-19T07:38:37.861Z,96054.03
2023-02-19T07:41:07.141Z,96057.38
2023-02-19T07:43:35.686Z,96068.34
2023-02-19T07:46:10.837Z,96075.47
2023-02-19T07:48:38.024Z,96084.63
2023-02-19T07:51:06.993Z,96079.66
2023-02-19T07:53:34.762Z,96078.66
2023-02-19T07:56:06.459Z,96089.94
2023-02-19T07:58:33.597Z,96079.66
2023-02-19T08:01:15.928Z,96079.81
2023-02-19T08:03:43.385Z,96085.97
2023-02-19T08:06:12.369Z,96085.38
2023-02-19T08:08:39.984Z,96088.03
2023-02-19T08:11:06.859Z,96085.88
2023-02-19T08:13:33.323Z,96080.59
2023-02-19T08:16:15.682Z,96095.50
2023-02-19T08:18:46.050Z,96091.22
2023-02-19T08:21:12.698Z,96091.44
2023-02-19T08:23:39.888Z,96087.97
2023-02-19T08:26:06.784Z,96085.34
2023-02-19T08:28:33.325Z,96092.00
2023-02-19T08:31:02.122Z,96093.56
2023-02-19T08:33:30.555Z,96090.81
2023-02-19T08:35:57.263Z,96089.25
2023-02-19T08:38:23.739Z,96084.56
2023-02-19T08:40:50.277Z,96088.50
2023-02-19T08:43:17.319Z,96093.94
2023-02-19T08:45:45.146Z,96100.16
2023-02-19T08:48:13.029Z,96104.59
2023-02-19T08:50:39.943Z,96099.94
2023-02-19T08:53:06.798Z,96096.41
2023-02-19T08:55:33.701Z,96095.28
2023-02-19T08:58:00.828Z,96095.44
2023-02-19T09:00:28.001Z,96091.56
2023-02-19T09:02:57.440Z,96092.09
2023-02-19T09:05:23.925Z,96092.25
2023-02-19T09:07:50.397Z,96104.25
2023-02-19T09:10:16.942Z,96101.00
2023-02-19T09:12:44.435Z,96100.78
2023-02-19T09:15:14.322Z,96108.94
2023-02-19T09:17:40.816Z,96103.25
2023-02-19T09:20:13.841Z,96107.13
2023-02-19T09:22:40.324Z,96108.13
2023-02-19T09:25:07.339Z,96102.03
2023-02-19T09:27:33.929Z,96099.25
2023-02-19T09:30:00.426Z,96110.34
2023-02-19T09:32:35.963Z,96111.03
2023-02-19T09:35:02.449Z,96108.00
2023-02-19T09:37:29.121Z,96103.16
2023-02-19T09:39:55.742Z,96108.47
2023-02-19T09:42:28.614Z,96101.13
2023-02-19T09:44:57.438Z,96111.66
2023-02-19T09:47:26.635Z,96108.34
2023-02-19T09:49:58.706Z,96102.41
2023-02-19T09:52:32.975Z,96105.06
2023-02-19T09:55:09.380Z,96100.50
2023-02-19T09:57:36.429Z,96108.47
2023-02-19T10:00:11.794Z,96099.25
2023-02-19T10:02:38.631Z,96106.44
2023-02-19T10:05:15.454Z,96103.56
2023-02-19T10:07:44.832Z,96107.63
2023-02-19T10:10:16.117Z,96103.50
2023-02-19T10:12:48.705Z,96102.78
2023-02-19T10:15:23.091Z,96108.94
2023-02-19T10:17:50.803Z,96106.53
2023-02-19T10:20:20.090Z,96109.16
2023-02-19T10:22:46.854Z,96106.34
2023-02-19T10:25:15.495Z,96110.66
2023-02-19T10:27:43.026Z,96101.91
2023-02-19T10:30:24.379Z,96106.41
2023-02-19T10:33:10.361Z,96106.19
2023-02-19T10:35:51.443Z,96110.22
2023-02-19T10:38:19.087Z,96107.97
2023-02-19T10:40:46.015Z,96113.09
2023-02-19T10:43:25.009Z,96112.59
2023-02-19T10:45:53.214Z,96118.47
2023-02-19T10:48:32.221Z,96115.84
2023-02-19T10:51:02.777Z,96102.22
2023-02-19T10:54:04.586Z,96103.09
2023-02-19T10:56:31.286Z,96101.50
2023-02-19T10:59:20.269Z,96104.28
2023-02-19T11:02:03.921Z,96099.31
2023-02-19T11:04:32.675Z,96098.50
2023-02-19T11:07:13.158Z,96096.75
2023-02-19T11:09:42.018Z,96091.19
2023-02-19T11:12:09.778Z,96098.38
2023-02-19T11:14:36.500Z,96097.31
2023-02-19T11:17:04.268Z,96098.69
2023-02-19T11:19:33.918Z,96096.50
2023-02-19T11:22:01.257Z,96093.03
2023-02-19T11:24:33.916Z,96085.81
2023-02-19T11:27:07.776Z,96084.94
2023-02-19T11:29:34.499Z,96079.34
2023-02-19T11:32:30.010Z,96078.47
2023-02-19T11:35:26.280Z,96072.19
2023-02-19T11:38:00.599Z,96066.03
2023-02-19T11:40:56.273Z,96063.72
2023-02-19T11:43:35.160Z,96066.50
2023-02-19T11:46:16.763Z,96058.50
2023-02-19T11:49:10.226Z,96059.75
2023-02-19T11:51:52.963Z,96061.03
2023-02-19T11:54:32.334Z,96047.47
2023-02-19T11:57:09.915Z,96041.34
2023-02-19T11:59:44.082Z,96043.47
2023-02-19T12:02:38.270Z,96029.88
2023-02-19T12:05:08.470Z,96034.16
2023-02-19T12:07:57.398Z,96024.75
2023-02-19T12:11:08.438Z,96028.97
2023-02-19T12:13:53.106Z,96021.34
2023-02-19T12:16:34.375Z,96006.50
2023-02-19T12:19:13.041Z,96013.44
2023-02-19T12:22:04.899Z,96001.06
2023-02-19T12:24:50.439Z,96009.03
2023-02-19T12:27:33.995Z,96001.38
2023-02-19T12:30:19.297Z,96004.09
2023-02-19T12:33:00.883Z,95998.63
2023-02-19T12:35:52.276Z,96004.41
2023-02-19T12:38:31.822Z,96006.28
2023-02-19T12:41:18.613Z,96002.81
2023-02-19T12:43:55.528Z,96000.19
2023-02-19T12:46:31.386Z,96005.41
2023-02-19T12:49:06.659Z,95997.22
2023-02-19T12:51:38.590Z,95992.25
2023-02-19T12:54:14.983Z,95996.75
2023-02-19T12:56:46.982Z,96000.00
2023-02-19T12:59:45.966Z,95990.88
2023-02-19T13:02:21.208Z,95984.66
2023-02-19T13:04:56.644Z,95988.34
2023-02-19T13:07:31.735Z,95983.97
2023-02-19T13:10:05.923Z,95969.69
2023-02-19T13:12:38.641Z,95965.44
2023-02-19T13:15:15.237Z,95979.50
2023-02-19T13:17:51.579Z,95966.50
2023-02-19T13:20:33.092Z,95971.63
2023-02-19T13:23:18.911Z,95961.28
2023-02-19T13:25:52.068Z,95962.75
2023-02-19T13:28:32.858Z,95966.97
2023-02-19T13:31:05.369Z,95965.38
2023-02-19T13:33:56.502Z,95972.72
2023-02-19T13:36:26.321Z,95967.22
2023-02-19T13:38:53.187Z,95954.78
2023-02-19T13:41:26.885Z,95959.81
2023-02-19T13:43:55.389Z,95960.63
2023-02-19T13:46:22.005Z,95971.31
2023-02-19T13:48:48.835Z,95971.09
2023-02-19T13:51:18.402Z,95965.81
2023-02-19T13:53:44.811Z,95963.03
2023-02-19T13:56:29.994Z,95963.25
2023-02-19T13:59:13.534Z,95952.94
2023-02-19T14:01:58.461Z,95946.13
2023-02-19T14:04:46.075Z,95951.06
2023-02-19T14:07:12.938Z,95955.47
2023-02-19T14:09:39.397Z,95957.00
2023-02-19T14:12:08.901Z,95956.06
2023-02-19T14:14:36.412Z,95958.50
2023-02-19T14:17:08.951Z,95952.59
2023-02-19T14:19:41.394Z,95948.78
2023-02-19T14:22:44.952Z,95946.88
2023-02-19T14:25:38.215Z,95936.53
2023-02-19T14:28:10.909Z,95929.06
2023-02-19T14:30:44.432Z,95909.44
2023-02-19T14:33:11.504Z,95907.28
2023-02-19T14:35:41.588Z,95896.72
2023-02-19T14:38:10.264Z,95908.66
2023-02-19T14:40:39.862Z,95921.09
2023-02-19T14:43:06.593Z,95912.56
2023-02-19T14:45:40.877Z,95918.75
2023-02-19T14:48:15.349Z,95907.75
2023-02-19T14:50:42.015Z,95900.44
2023-02-19T14:53:08.949Z,95908.56
2023-02-19T14:55:37.733Z,95912.47
2023-02-19T14:58:15.855Z,95926.13
2023-02-19T15:00:42.792Z,95933.88
2023-02-19T15:03:36.688Z,95941.56
2023-02-19T15:06:11.473Z,95934.63
2023-02-19T15:08:47.001Z,95945.88
2023-02-19T15:11:24.701Z,95941.72
2023-02-19T15:14:06.164Z,95936.03
2023-02-19T15:16:35.062Z,95933.22
2023-02-19T15:19:05.737Z,95931.59
2023-02-19T15:21:33.141Z,95927.09
2023-02-19T15:24:02.214Z,95932.28
2023-02-19T15:26:36.901Z,95922.25
2023-02-19T15:29:10.493Z,95916.19
2023-02-19T15:31:37.405Z,95919.75
2023-02-19T15:34:04.051Z,95923.25
2023-02-19T15:36:36.108Z,95927.69
2023-02-19T15:39:05.294Z,95948.41
2023-02-19T15:42:01.390Z,95950.53
2023-02-19T15:44:58.138Z,95950.75
2023-02-19T15:47:36.335Z,95938.56
2023-02-19T15:50:17.091Z,95942.00
2023-02-19T15:52:55.012Z,95942.69
2023-02-19T15:55:29.264Z,95936.50
2023-02-19T15:58:14.906Z,95950.97
2023-02-19T16:00:52.121Z,95950.25
2023-02-19T16:03:21.109Z,95952.25
2023-02-19T16:06:08.455Z,95960.25
2023-02-19T16:08:36.851Z,95972.94
2023-02-19T16:11:30.386Z,95956.59
2023-02-19T16:14:16.620Z,95964.72
2023-02-19T16:16:43.940Z,95980.22
2023-02-19T16:19:10.779Z,95978.66
2023-02-19T16:21:37.545Z,95986.81
2023-02-19T16:24:11.537Z,95982.75
2023-02-19T16:26:42.062Z,95969.13
2023-02-19T16:29:24.869Z,95970.59
2023-02-19T16:32:02.406Z,95975.53
2023-02-19T16:34:43.470Z,95989.84
2023-02-19T16:37:34.963Z,95998.28
2023-02-19T16:40:07.553Z,95990.56
2023-02-19T16:42:49.314Z,95993.63
2023-02-19T16:45:16.730Z,95986.06
2023-02-19T16:47:44.114Z,95992.00
2023-02-19T16:50:26.378Z,96002.00
2023-02-19T16:52:58.308Z,96000.97
2023-02-19T16:55:25.468Z,96014.41
2023-02-19T16:57:52.141Z,96016.22
2023-02-19T17:00:19.526Z,96025.34
2023-02-19T17:02:47.624Z,96026.69
2023-02-19T17:05:14.662Z,96032.19
2023-02-19T17:07:41.218Z,96031.75
2023-02-19T17:10:08.112Z,96035.78
2023-02-19T17:12:34.655Z,96040.59
2023-02-19T17:15:01.173Z,96043.63
2023-02-19T17:17:27.638Z,96052.47
2023-02-19T17:19:54.158Z,96053.88
2023-02-19T17:22:20.642Z,96064.81
2023-02-19T17:24:47.200Z,96053.78
2023-02-19T17:27:13.898Z,96063.50
2023-02-19T17:29:40.484Z,96066.47
2023-02-19T17:32:07.366Z,96067.13
2023-02-19T17:34:33.949Z,96067.59
2023-02-19T17:37:00.453Z,96065.59
2023-02-19T17:39:27.088Z,96071.41
2023-02-19T17:41:53.641Z,96076.03
2023-02-19T17:44:20.474Z,96078.59
2023-02-19T17:46:54.862Z,96078.75
2023-02-19T17:49:21.443Z,96079.88
2023-02-19T17:51:47.902Z,96080.88
2023-02-19T17:54:14.363Z,96082.69
2023-02-19T17:56:40.907Z,96068.84
2023-02-19T17:59:07.578Z,96089.97
2023-02-19T18:01:34.094Z,96093.81
2023-02-19T18:04:00.858Z,96091.81
2023-02-19T18:06:27.667Z,96089.50
2023-02-19T18:08:54.278Z,96099.25
2023-02-19T18:11:21.878Z,96114.69
2023-02-19T18:13:50.144Z,96101.22
2023-02-19T18:16:17.259Z,96101.81
2023-02-19T18:18:45.120Z,96098.59
2023-02-19T18:21:13.625Z,96098.91
2023-02-19T18:23:40.541Z,96111.16
2023-02-19T18:26:10.151Z,96112.25
2023-02-19T18:28:37.657Z,96114.06
2023-02-19T18:31:04.467Z,96109.25
2023-02-19T18:33:31.032Z,96112.38
2023-02-19T18:35:57.568Z,96117.81
2023-02-19T18:38:24.308Z,96111.66
2023-02-19T18:40:50.955Z,96098.41
2023-02-19T18:43:17.612Z,96101.81
2023-02-19T18:45:44.164Z,96093.94
2023-02-19T18:48:10.669Z,96100.66
2023-02-19T18:50:37.285Z,96094.06
2023-02-19T18:53:03.821Z,96094.81
2023-02-19T18:55:30.356Z,96101.09
2023-02-19T18:57:56.892Z,96098.84
2023-02-19T19:00:26.431Z,96091.16
2023-02-19T19:02:56.057Z,96098.34
2023-02-19T19:05:22.978Z,96091.53
2023-02-19T19:07:54.377Z,96093.38
2023-02-19T19:10:24.011Z,96085.25
2023-02-19T19:12:50.958Z,96101.81
2023-02-19T19:15:18.561Z,96105.03
2023-02-19T19:17:45.933Z,96107.41
2023-02-19T19:20:14.937Z,96104.31
2023-02-19T19:22:41.541Z,96103.75
2023-02-19T19:25:08.479Z,96104.91
2023-02-19T19:27:37.335Z,96109.19
2023-02-19T19:30:05.004Z,96111.19
2023-02-19T19:32:31.523Z,96106.00
2023-02-19T19:35:01.871Z,96112.47
2023-02-19T19:37:34.025Z,96114.84
2023-02-19T19:40:00.531Z,96125.69
2023-02-19T19:42:29.022Z,96124.66
2023-02-19T19:44:55.468Z,96120.19
2023-02-19T19:47:23.201Z,96124.84
2023-02-19T19:49:49.736Z,96109.94
2023-02-19T19:52:16.324Z,96125.41
2023-02-19T19:54:43.662Z,96113.03
2023-02-19T19:57:10.972Z,96110.59
2023-02-19T19:59:40.629Z,96109.50
2023-02-19T20:02:07.947Z,96120.25
2023-02-19T20:04:35.036Z,96110.06
2023-02-19T20:07:01.832Z,96100.44
2023-02-19T20:09:30.429Z,96097.19
2023-02-19T20:11:57.016Z,96099.44
2023-02-19T20:14:27.270Z,96098.59
2023-02-19T20:16:55.132Z,96101.44
2023-02-19T20:19:22.243Z,96102.72
2023-02-19T20:21:53.323Z,96111.06
2023-02-19T20:24:25.310Z,96124.22
2023-02-19T20:26:54.829Z,96129.88
2023-02-19T20:29:21.381Z,96139.41
2023-02-19T20:31:51.824Z,96139.88
2023-02-19T20:34:18.577Z,96137.50
2023-02-19T20:36:46.702Z,96140.34
2023-02-19T20:39:14.158Z,96140.34
2023-02-19T20:41:45.169Z,96143.59
2023-02-19T20:44:11.716Z,96144.78
2023-02-19T20:46:45.427Z,96149.13
2023-02-19T20:49:12.886Z,96152.13
2023-02-19T20:51:53.858Z,96159.41
2023-02-19T20:54:24.031Z,96177.47
2023-02-19T20:56:52.911Z,96181.31
2023-02-19T20:59:21.814Z,96179.19
2023-02-19T21:01:48.664Z,96168.84
2023-02-19T21:04:18.212Z,96177.00
2023-02-19T21:06:47.208Z,96175.84
2023-02-19T21:09:13.874Z,96178.19
2023-02-19T21:11:40.340Z,96181.56
2023-02-19T21:14:06.950Z,96186.00
2023-02-19T21:16:33.628Z,96167.91
2023-02-19T21:19:00.197Z,96160.94
2023-02-19T21:21:26.838Z,96147.69
2023-02-19T21:23:54.358Z,96160.28
2023-02-19T21:26:21.332Z,96152.56
2023-02-19T21:28:53.150Z,96162.19
2023-02-19T21:31:20.646Z,96170.53
2023-02-19T21:33:49.615Z,96166.31
2023-02-19T21:36:18.370Z,96167.25
2023-02-19T21:38:44.861Z,96166.03
2023-02-19T21:41:11.320Z,96184.88
2023-02-19T21:43:37.795Z,96170.97
2023-02-19T21:46:04.460Z,96178.03
2023-02-19T21:48:31.010Z,96180.81
2023-02-19T21:50:57.504Z,96185.22
2023-02-19T21:53:24.032Z,96190.66
2023-02-19T21:55:58.205Z,96188.72
2023-02-19T21:58:26.219Z,96196.34
2023-02-19T22:00:52.858Z,96193.88
2023-02-19T22:03:19.362Z,96187.59
2023-02-19T22:05:45.932Z,96188.28
2023-02-19T22:08:12.490Z,96189.91
2023-02-19T22:10:38.950Z,96172.13
2023-02-19T22:13:05.529Z,96175.34
2023-02-19T22:15:32.145Z,96177.97
2023-02-19T22:17:58.622Z,96182.22
2023-02-19T22:20:25.269Z,96185.22
2023-02-19T22:22:51.860Z,96183.19
2023-02-19T22:25:18.788Z,96181.81
2023-02-19T22:27:45.413Z,96180.81
2023-02-19T22:30:12.299Z,96181.09
2023-02-19T22:32:40.466Z,96192.00
2023-02-19T22:35:07.453Z,96179.56
2023-02-19T22:37:34.207Z,96183.00
2023-02-19T22:40:01.000Z,96181.06
2023-02-19T22:42:27.530Z,96178.97
2023-02-19T22:44:54.002Z,96178.75
2023-02-19T22:47:20.565Z,96185.88
2023-02-19T22:49:47.167Z,96179.31
2023-02-19T22:52:14.246Z,96183.31
2023-02-19T22:54:40.885Z,96185.94
2023-02-19T22:57:07.484Z,96182.41
2023-02-19T22:59:34.225Z,96183.44
2023-02-19T23:02:01.014Z,96188.31
2023-02-19T23:04:27.771Z,96188.84
2023-02-19T23:06:54.520Z,96195.91
2023-02-19T23:09:28.702Z,96186.84
2023-02-19T23:12:08.461Z,96178.91
2023-02-19T23:14:35.259Z,96177.09
2023-02-19T23:17:01.891Z,96175.84
2023-02-19T23:19:28.370Z,96189.84
2023-02-19T23:21:55.429Z,96171.16
2023-02-19T23:24:21.947Z,96187.91
2023-02-19T23:26:50.987Z,96184.63
2023-02-19T23:29:19.696Z,96191.41
2023-02-19T23:31:47.442Z,96186.66
2023-02-19T23:34:14.402Z,96189.09
2023-02-19T23:36:47.849Z,96204.56
2023-02-19T23:39:16.803Z,96204.50
2023-02-19T23:41:52.347Z,96205.00
2023-02-19T23:44:19.263Z,96196.91
2023-02-19T23:46:46.206Z,96193.16
2023-02-19T23:49:13.502Z,96192.00
2023-02-19T23:51:40.119Z,96192.25
2023-02-19T23:54:07.112Z,96193.97
2023-02-19T23:56:34.037Z,96201.63
2023-02-19T23:59:00.787Z,96201.72
